Time;durP1;ratioP1;P1;durP2;ratioP2;P2;SDS_P1;SDS_P2;PMS_P1;PMS_P2;Temp;Humidity;BMP_temperature;BMP_pressure;BME280_temperature;BME280_humidity;BME280_pressure;Samples;Min_cycle;Max_cycle;Signal;HPM_P1;HPM_P2
2022/12/11 00:00:42;;;;;;;74.25;27.75;;;0.60;99.90;;;;;;5112839;28;20032;-61
2022/12/11 00:03:08;;;;;;;90.72;30.45;;;0.60;99.90;;;;;;5113203;28;20042;-62
2022/12/11 00:05:34;;;;;;;85.18;32.50;;;0.60;99.90;;;;;;5112001;28;20036;-62
2022/12/11 00:07:59;;;;;;;83.10;30.38;;;0.60;99.90;;;;;;5111220;28;20422;-62
2022/12/11 00:10:25;;;;;;;98.22;31.55;;;0.70;99.90;;;;;;5113096;28;20046;-62
2022/12/11 00:12:51;;;;;;;99.32;31.73;;;0.60;99.90;;;;;;5111117;28;20396;-61
2022/12/11 00:15:17;;;;;;;85.30;28.70;;;0.70;99.90;;;;;;5094736;28;20122;-61
2022/12/11 00:17:43;;;;;;;80.05;29.30;;;0.70;99.90;;;;;;5111619;28;20087;-62
2022/12/11 00:20:09;;;;;;;82.55;32.33;;;0.70;99.90;;;;;;5093876;28;20094;-61
2022/12/11 00:22:35;;;;;;;83.28;29.30;;;0.70;99.90;;;;;;5111926;28;20032;-62
2022/12/11 00:25:00;;;;;;;86.10;30.00;;;0.70;99.90;;;;;;5112896;28;20194;-61
2022/12/11 00:27:26;;;;;;;86.70;31.88;;;0.70;99.90;;;;;;5110681;28;20519;-61
2022/12/11 00:29:52;;;;;;;77.88;27.75;;;0.70;99.90;;;;;;5111956;28;20051;-61
2022/12/11 00:32:17;;;;;;;88.93;31.05;;;0.70;99.90;;;;;;5094640;28;20130;-61
2022/12/11 00:34:43;;;;;;;75.15;28.20;;;0.70;99.90;;;;;;5110577;28;20480;-61
2022/12/11 00:37:09;;;;;;;79.13;28.90;;;0.70;99.90;;;;;;5112466;28;20361;-61
2022/12/11 00:39:36;;;;;;;78.90;27.63;;;0.70;99.90;;;;;;5111660;28;20047;-61
2022/12/11 00:42:02;;;;;;;79.28;26.85;;;0.70;99.90;;;;;;5111960;28;20058;-61
2022/12/11 00:44:27;;;;;;;76.18;28.15;;;0.70;99.90;;;;;;5111905;28;20036;-61
2022/12/11 00:46:53;;;;;;;73.90;29.20;;;0.80;99.90;;;;;;5094585;28;20389;-61
2022/12/11 00:49:18;;;;;;;64.50;23.73;;;0.70;99.90;;;;;;5110429;28;20527;-61
2022/12/11 00:51:44;;;;;;;81.13;29.60;;;0.80;99.90;;;;;;5094153;28;20400;-61
2022/12/11 00:54:10;;;;;;;78.45;26.55;;;0.80;99.90;;;;;;5111220;28;20051;-61
2022/12/11 00:56:35;;;;;;;72.38;26.70;;;0.80;99.90;;;;;;5110608;28;20071;-61
2022/12/11 00:59:01;;;;;;;68.57;24.52;;;0.90;99.90;;;;;;5111400;28;20036;-61
2022/12/11 01:01:27;;;;;;;69.97;27.73;;;0.80;99.90;;;;;;5111021;28;20040;-61
2022/12/11 01:03:53;;;;;;;74.78;27.10;;;0.90;99.90;;;;;;5111768;28;20031;-61
2022/12/11 01:06:22;;;;;;;81.82;29.27;;;0.90;99.90;;;;;;5112189;28;20043;-62
2022/12/11 01:10:22;;;;;;;70.45;24.67;;;0.80;99.90;;;;;;5110989;28;20089;-61
2022/12/11 01:11:34;;;;;;;75.90;26.52;;;0.90;99.90;;;;;;5111794;28;20392;-61
2022/12/11 01:13:59;;;;;;;59.40;25.83;;;0.90;99.90;;;;;;5110979;28;20039;-62
2022/12/11 01:16:25;;;;;;;74.32;27.08;;;0.80;99.90;;;;;;5111322;28;20044;-61
2022/12/11 01:18:50;;;;;;;80.95;26.60;;;0.90;99.90;;;;;;5111912;28;20040;-62
2022/12/11 01:21:16;;;;;;;65.60;27.40;;;0.90;99.90;;;;;;5112376;28;20110;-61
2022/12/11 01:23:42;;;;;;;65.05;24.73;;;0.90;99.90;;;;;;5111438;28;20043;-61
2022/12/11 01:26:10;;;;;;;72.00;26.15;;;0.90;99.90;;;;;;5111250;28;20058;-61
2022/12/11 01:28:36;;;;;;;63.70;25.58;;;0.90;99.90;;;;;;5110973;28;20112;-61
2022/12/11 01:31:02;;;;;;;63.15;25.08;;;0.90;99.90;;;;;;5110022;28;20048;-61
2022/12/11 01:33:27;;;;;;;70.53;27.00;;;0.90;99.90;;;;;;5111775;28;20052;-61
2022/12/11 01:35:54;;;;;;;73.25;26.80;;;0.90;99.90;;;;;;5111914;28;20453;-62
2022/12/11 01:38:19;;;;;;;72.20;27.05;;;0.90;99.90;;;;;;5110322;28;20377;-62
2022/12/11 01:40:49;;;;;;;65.03;23.95;;;1.00;99.90;;;;;;5112145;28;20035;-61
2022/12/11 01:43:14;;;;;;;74.20;28.15;;;1.00;99.90;;;;;;5112090;28;20036;-61
2022/12/11 01:45:46;;;;;;;60.20;24.67;;;1.00;99.90;;;;;;5110136;28;20092;-61
2022/12/11 01:48:19;;;;;;;68.47;23.77;;;0.90;99.90;;;;;;5112073;28;20040;-62
2022/12/11 01:51:01;;;;;;;63.78;23.92;;;1.00;99.90;;;;;;5093571;28;20043;-62
2022/12/11 01:53:39;;;;;;;73.75;25.67;;;1.00;99.90;;;;;;5110081;28;20436;-62
2022/12/11 01:56:06;;;;;;;65.20;25.52;;;1.00;99.90;;;;;;5115042;28;20111;-62
2022/12/11 01:58:38;;;;;;;69.75;25.10;;;1.00;99.90;;;;;;5096829;28;20071;-62
2022/12/11 02:01:03;;;;;;;58.42;23.20;;;1.00;99.90;;;;;;5115699;28;20039;-61
2022/12/11 02:03:29;;;;;;;57.80;23.50;;;1.00;99.90;;;;;;5115655;28;20042;-62
2022/12/11 02:05:59;;;;;;;55.58;22.65;;;1.00;99.90;;;;;;5114712;28;20042;-62
2022/12/11 02:08:25;;;;;;;62.20;22.95;;;1.00;99.90;;;;;;5114474;28;20097;-62
2022/12/11 02:11:17;;;;;;;56.70;23.35;;;1.00;99.90;;;;;;5114087;28;20485;-62
2022/12/11 02:14:23;;;;;;;54.60;22.85;;;1.00;99.90;;;;;;5113328;28;20043;-62
2022/12/11 02:16:59;;;;;;;59.95;22.83;;;1.00;99.90;;;;;;5096827;28;20042;-62
2022/12/11 02:20:07;;;;;;;65.65;26.20;;;1.00;99.90;;;;;;5114745;28;20559;-62
2022/12/11 02:22:50;;;;;;;65.70;26.60;;;1.00;99.90;;;;;;5115504;28;20092;-62
2022/12/11 02:25:28;;;;;;;75.63;29.45;;;1.10;99.90;;;;;;5114096;28;20499;-61
2022/12/11 02:28:17;;;;;;;81.57;27.20;;;1.10;99.90;;;;;;5113124;28;20112;-61
2022/12/11 02:30:50;;;;;;;73.75;26.63;;;1.00;99.90;;;;;;5114947;28;20070;-61
2022/12/11 02:33:21;;;;;;;75.00;27.95;;;1.00;99.90;;;;;;5114753;27;20081;-61
2022/12/11 02:35:48;;;;;;;75.30;27.35;;;1.10;99.90;;;;;;5114380;28;20040;-62
2022/12/11 02:38:21;;;;;;;68.10;25.55;;;1.10;99.90;;;;;;5114771;28;20039;-62
2022/12/11 02:40:50;;;;;;;79.22;27.30;;;1.10;99.90;;;;;;5114297;28;20046;-62
2022/12/11 02:43:16;;;;;;;64.35;23.45;;;1.10;99.90;;;;;;5113554;28;20119;-62
2022/12/11 02:45:45;;;;;;;74.82;28.27;;;1.10;99.90;;;;;;5114662;28;20044;-62
2022/12/11 02:48:14;;;;;;;73.68;28.58;;;1.10;99.90;;;;;;5112963;28;20414;-62
2022/12/11 02:50:44;;;;;;;77.95;27.67;;;1.10;99.90;;;;;;5113879;28;20476;-61
2022/12/11 02:53:14;;;;;;;71.15;26.30;;;1.10;99.90;;;;;;5113693;28;20506;-62
2022/12/11 02:55:41;;;;;;;63.55;25.52;;;1.10;99.90;;;;;;5112795;28;20046;-62
2022/12/11 02:58:24;;;;;;;71.75;28.85;;;1.10;99.90;;;;;;5114447;28;20119;-61
2022/12/11 03:00:50;;;;;;;62.85;27.10;;;1.20;99.90;;;;;;5113858;28;20092;-61
2022/12/11 03:03:16;;;;;;;87.13;30.95;;;1.10;99.90;;;;;;5112484;28;20039;-61
2022/12/11 03:05:42;;;;;;;95.82;33.22;;;1.20;99.90;;;;;;5112760;28;20123;-61
2022/12/11 03:08:08;;;;;;;78.78;27.23;;;1.20;99.90;;;;;;5112703;28;20496;-61
2022/12/11 03:10:34;;;;;;;87.28;30.45;;;1.20;99.90;;;;;;5114038;28;20089;-61
2022/12/11 03:13:01;;;;;;;83.03;29.65;;;1.20;99.90;;;;;;5114262;28;20122;-61
2022/12/11 03:15:40;;;;;;;93.50;32.13;;;1.20;99.90;;;;;;5113617;28;20043;-61
2022/12/11 03:18:20;;;;;;;78.82;27.42;;;1.20;99.90;;;;;;5113871;28;20169;-61
2022/12/11 03:21:02;;;;;;;77.82;30.70;;;1.10;99.90;;;;;;5114215;28;20040;-61
2022/12/11 03:23:53;;;;;;;78.78;30.63;;;1.20;99.90;;;;;;5112347;28;20976;-61
2022/12/11 03:26:19;;;;;;;69.88;27.08;;;1.10;99.90;;;;;;5114189;28;20092;-61
2022/12/11 03:29:01;;;;;;;77.90;28.48;;;1.20;99.90;;;;;;5112013;28;20113;-61
2022/12/11 03:31:39;;;;;;;79.25;30.23;;;1.20;99.90;;;;;;5111909;28;20130;-61
2022/12/11 03:34:16;;;;;;;77.88;28.77;;;1.20;99.90;;;;;;5113469;28;20044;-61
2022/12/11 03:36:44;;;;;;;87.57;31.48;;;1.20;99.90;;;;;;5113276;28;20580;-61
2022/12/11 03:39:21;;;;;;;83.55;30.90;;;1.20;99.90;;;;;;5113250;28;20043;-61
2022/12/11 03:41:49;;;;;;;85.20;29.10;;;1.30;99.90;;;;;;5112568;28;20135;-61
2022/12/11 03:44:17;;;;;;;76.60;26.92;;;1.20;99.90;;;;;;5112686;28;20150;-61
2022/12/11 03:46:44;;;;;;;83.50;30.80;;;1.20;99.90;;;;;;5113471;28;20463;-61
2022/12/11 03:49:16;;;;;;;75.47;28.63;;;1.20;99.90;;;;;;5112192;28;20050;-61
2022/12/11 03:51:45;;;;;;;84.63;29.65;;;1.20;99.90;;;;;;5111461;28;20050;-61
2022/12/11 03:54:11;;;;;;;79.90;28.15;;;1.20;99.90;;;;;;5112166;28;20040;-61
2022/12/11 03:56:39;;;;;;;77.88;30.83;;;1.20;99.90;;;;;;5112409;28;20136;-61
2022/12/11 03:59:05;;;;;;;87.20;32.88;;;1.30;99.90;;;;;;5112213;28;20075;-61
2022/12/11 04:01:31;;;;;;;93.72;29.58;;;1.20;99.90;;;;;;5112201;28;20075;-61
2022/12/11 04:03:56;;;;;;;70.78;29.00;;;1.20;99.90;;;;;;5112923;28;20119;-61
2022/12/11 04:06:22;;;;;;;66.15;25.38;;;1.30;99.90;;;;;;5112636;28;20047;-61
2022/12/11 04:08:48;;;;;;;80.55;28.42;;;1.20;99.90;;;;;;5113149;28;20396;-61
2022/12/11 04:16:42;;;;;;;79.78;27.52;;;1.20;99.90;;;;;;5111598;28;20044;-61
2022/12/11 04:24:37;;;;;;;65.38;25.15;;;1.30;99.90;;;;;;5111838;28;20043;-61
2022/12/11 04:27:03;;;;;;;84.03;31.20;;;1.30;99.90;;;;;;5111976;28;20420;-61
2022/12/11 04:29:29;;;;;;;71.82;27.05;;;1.30;99.90;;;;;;5113296;28;20047;-61
2022/12/11 04:31:54;;;;;;;77.22;30.75;;;1.30;99.90;;;;;;5112607;28;20043;-61
2022/12/11 04:34:20;;;;;;;78.65;27.20;;;1.30;99.90;;;;;;5094053;28;20083;-61
2022/12/11 04:36:46;;;;;;;78.72;27.13;;;1.30;99.90;;;;;;5111380;28;20493;-61
2022/12/11 04:39:12;;;;;;;70.07;29.90;;;1.30;99.90;;;;;;5111041;28;20036;-61
2022/12/11 04:41:37;;;;;;;66.30;26.35;;;1.40;99.90;;;;;;5110915;28;20042;-61
2022/12/11 04:44:04;;;;;;;85.15;26.98;;;1.30;99.90;;;;;;5111186;28;20446;-61
2022/12/11 04:46:30;;;;;;;83.75;29.02;;;1.40;99.90;;;;;;5111532;28;20369;-61
2022/12/11 04:48:56;;;;;;;79.80;27.30;;;1.40;99.90;;;;;;5093716;28;20043;-61
2022/12/11 04:51:22;;;;;;;84.78;30.17;;;1.30;99.90;;;;;;5112421;28;20051;-61
2022/12/11 04:53:48;;;;;;;73.95;29.90;;;1.30;99.90;;;;;;5112422;28;20040;-61
2022/12/11 04:56:14;;;;;;;67.22;27.15;;;1.40;99.90;;;;;;5111761;28;20046;-61
2022/12/11 04:58:42;;;;;;;76.10;27.33;;;1.30;99.90;;;;;;5112794;28;20039;-61
2022/12/11 05:01:13;;;;;;;74.90;28.52;;;1.40;99.90;;;;;;5112325;28;20070;-61
2022/12/11 05:03:40;;;;;;;79.15;26.90;;;1.30;99.90;;;;;;5111514;28;20511;-61
2022/12/11 05:06:07;;;;;;;72.40;26.00;;;1.40;99.90;;;;;;5112184;28;20047;-61
2022/12/11 05:08:35;;;;;;;76.85;27.17;;;1.30;99.90;;;;;;5110701;28;20087;-61
2022/12/11 05:11:03;;;;;;;70.63;26.27;;;1.30;99.90;;;;;;5112300;28;20047;-61
2022/12/11 05:13:29;;;;;;;59.97;26.15;;;1.40;99.90;;;;;;5111222;28;20119;-61
2022/12/11 05:15:55;;;;;;;71.32;27.95;;;1.30;99.90;;;;;;5110045;28;20500;-61
2022/12/11 05:18:21;;;;;;;78.05;27.40;;;1.40;99.90;;;;;;5110966;28;20051;-61
2022/12/11 05:20:58;;;;;;;70.22;25.23;;;1.40;99.90;;;;;;5112203;28;20120;-62
2022/12/11 05:23:24;;;;;;;69.68;25.45;;;1.40;99.90;;;;;;5110448;28;20552;-62
2022/12/11 05:25:55;;;;;;;64.28;25.67;;;1.30;99.90;;;;;;5112126;28;20400;-61
2022/12/11 05:28:21;;;;;;;77.82;27.35;;;1.40;99.90;;;;;;5110375;28;20091;-61
2022/12/11 05:30:47;;;;;;;66.63;25.35;;;1.40;99.90;;;;;;5096341;28;20051;-61
2022/12/11 05:33:13;;;;;;;71.50;27.75;;;1.40;99.90;;;;;;5097814;28;20118;-61
2022/12/11 05:35:45;;;;;;;75.53;25.83;;;1.40;99.90;;;;;;5116156;28;20161;-61
2022/12/11 05:38:10;;;;;;;65.35;25.15;;;1.40;99.90;;;;;;5114200;28;20035;-61
2022/12/11 05:40:36;;;;;;;72.80;27.30;;;1.40;99.90;;;;;;5114925;28;20413;-61
2022/12/11 05:43:02;;;;;;;66.43;25.90;;;1.40;99.90;;;;;;5115741;28;20190;-61
2022/12/11 05:45:27;;;;;;;72.78;27.63;;;1.40;99.90;;;;;;5113950;28;20036;-61
2022/12/11 05:47:53;;;;;;;66.95;27.77;;;1.40;99.90;;;;;;5115733;28;20114;-61
2022/12/11 05:50:18;;;;;;;73.97;28.25;;;1.40;99.90;;;;;;5115791;28;20063;-61
2022/12/11 05:52:44;;;;;;;56.75;25.50;;;1.40;99.90;;;;;;5115389;28;20047;-61
2022/12/11 05:55:10;;;;;;;66.95;26.45;;;1.40;99.90;;;;;;5116051;28;20118;-61
2022/12/11 05:57:35;;;;;;;79.63;26.65;;;1.50;99.90;;;;;;5115031;28;20071;-61
2022/12/11 06:00:01;;;;;;;68.50;25.23;;;1.40;99.90;;;;;;5097282;28;20519;-61
2022/12/11 06:02:27;;;;;;;68.25;26.92;;;1.40;99.90;;;;;;5114273;28;20454;-61
2022/12/11 06:04:52;;;;;;;68.18;27.63;;;1.40;99.90;;;;;;5114850;28;20035;-61
2022/12/11 06:07:18;;;;;;;62.90;26.05;;;1.40;99.90;;;;;;5114352;28;20047;-61
2022/12/11 06:09:44;;;;;;;69.25;24.73;;;1.40;99.90;;;;;;5115468;28;20042;-61
2022/12/11 06:12:09;;;;;;;58.75;23.92;;;1.40;99.90;;;;;;5113359;28;20097;-61
2022/12/11 06:14:35;;;;;;;60.92;24.42;;;1.40;99.90;;;;;;5115624;28;20075;-61
2022/12/11 06:17:00;;;;;;;69.07;27.52;;;1.40;99.90;;;;;;5115144;28;20035;-61
2022/12/11 06:19:26;;;;;;;62.53;23.27;;;1.40;99.90;;;;;;5114799;28;20393;-61
2022/12/11 06:21:52;;;;;;;61.92;24.88;;;1.40;99.90;;;;;;5115461;28;20457;-61
2022/12/11 06:24:18;;;;;;;69.88;27.63;;;1.40;99.90;;;;;;5113498;28;20043;-61
2022/12/11 06:26:43;;;;;;;67.18;24.45;;;1.40;99.90;;;;;;5113204;28;20044;-61
2022/12/11 06:29:09;;;;;;;56.53;23.40;;;1.40;99.90;;;;;;5113687;28;20048;-61
2022/12/11 06:31:34;;;;;;;64.38;24.40;;;1.30;99.90;;;;;;5113977;28;20079;-61
2022/12/11 06:34:00;;;;;;;54.67;24.10;;;1.40;99.90;;;;;;5114501;28;20035;-61
2022/12/11 06:36:26;;;;;;;48.50;21.77;;;1.40;99.90;;;;;;5096685;28;20481;-61
2022/12/11 06:38:52;;;;;;;66.53;25.77;;;1.40;99.90;;;;;;5113279;28;20396;-61
2022/12/11 06:41:17;;;;;;;58.65;24.13;;;1.40;99.90;;;;;;5113234;28;20035;-61
2022/12/11 06:43:43;;;;;;;56.03;23.33;;;1.40;99.90;;;;;;5113446;28;20044;-62
2022/12/11 06:46:14;;;;;;;57.25;22.50;;;1.30;99.90;;;;;;5113650;28;20031;-61
2022/12/11 06:48:41;;;;;;;61.75;23.63;;;1.40;99.90;;;;;;5113468;28;20044;-61
2022/12/11 06:51:09;;;;;;;57.58;22.65;;;1.40;99.90;;;;;;5113664;28;20035;-61
2022/12/11 06:53:35;;;;;;;47.42;21.98;;;1.40;99.90;;;;;;5096269;28;20032;-61
2022/12/11 06:56:13;;;;;;;56.67;23.33;;;1.40;99.90;;;;;;5112930;28;20071;-61
2022/12/11 06:58:39;;;;;;;51.35;23.20;;;1.40;99.90;;;;;;5114882;28;20536;-62
2022/12/11 07:01:16;;;;;;;52.22;22.45;;;1.40;99.90;;;;;;5113690;28;20046;-62
2022/12/11 07:03:42;;;;;;;63.90;23.88;;;1.40;99.90;;;;;;5096535;28;20032;-61
2022/12/11 07:06:08;;;;;;;63.63;23.55;;;1.40;99.90;;;;;;5114144;28;20032;-61
2022/12/11 07:08:34;;;;;;;48.97;21.35;;;1.40;99.90;;;;;;5112789;28;20042;-62
2022/12/11 07:11:08;;;;;;;60.60;25.27;;;1.40;99.90;;;;;;5113326;28;20388;-62
2022/12/11 07:13:34;;;;;;;50.45;23.02;;;1.40;99.90;;;;;;5114610;28;20400;-61
2022/12/11 07:16:03;;;;;;;54.40;21.67;;;1.40;99.90;;;;;;5112426;28;20043;-61
2022/12/11 07:18:30;;;;;;;56.42;23.67;;;1.40;99.90;;;;;;5113027;28;20052;-61
2022/12/11 07:20:58;;;;;;;52.50;22.98;;;1.40;99.90;;;;;;5114251;28;20067;-61
2022/12/11 07:23:26;;;;;;;58.15;22.65;;;1.40;99.90;;;;;;5112223;28;20099;-61
2022/12/11 07:25:52;;;;;;;51.63;23.25;;;1.40;99.90;;;;;;5114211;28;20039;-61
2022/12/11 07:28:18;;;;;;;54.10;23.00;;;1.40;99.90;;;;;;5113671;28;20100;-61
2022/12/11 07:30:43;;;;;;;55.83;22.95;;;1.40;99.90;;;;;;5113456;28;20499;-61
2022/12/11 07:33:09;;;;;;;53.40;22.33;;;1.40;99.90;;;;;;5113878;28;20040;-61
2022/12/11 07:35:35;;;;;;;55.15;23.17;;;1.40;99.90;;;;;;5112338;28;20498;-61
2022/12/11 07:38:01;;;;;;;52.20;23.85;;;1.40;99.90;;;;;;5113003;28;20036;-61
2022/12/11 07:40:26;;;;;;;57.72;23.33;;;1.40;99.90;;;;;;5112315;28;20043;-61
2022/12/11 07:42:52;;;;;;;59.47;24.65;;;1.40;99.90;;;;;;5113543;28;20036;-61
2022/12/11 07:45:18;;;;;;;58.13;22.98;;;1.50;99.90;;;;;;5112967;28;20503;-61
2022/12/11 07:47:43;;;;;;;50.17;23.45;;;1.50;99.90;;;;;;5112368;28;20095;-61
2022/12/11 07:50:09;;;;;;;68.35;24.63;;;1.50;99.90;;;;;;5111204;28;20050;-61
2022/12/11 07:52:35;;;;;;;53.58;22.25;;;1.50;99.90;;;;;;5113461;28;20043;-61
2022/12/11 07:55:01;;;;;;;44.80;20.38;;;1.50;99.90;;;;;;5113617;28;20365;-61
2022/12/11 07:57:27;;;;;;;53.85;22.60;;;1.50;99.90;;;;;;5111359;28;20039;-61
2022/12/11 07:59:54;;;;;;;51.35;23.33;;;1.50;99.90;;;;;;5099174;27;20101;-61
2022/12/11 08:02:21;;;;;;;59.05;24.50;;;1.60;99.90;;;;;;5095507;27;20040;-62
2022/12/11 08:04:47;;;;;;;49.33;21.55;;;1.50;99.90;;;;;;5096814;28;20032;-62
2022/12/11 08:07:13;;;;;;;65.25;24.48;;;1.50;99.90;;;;;;5113047;28;20051;-62
2022/12/11 08:09:39;;;;;;;52.17;25.20;;;1.50;99.90;;;;;;5112678;28;20476;-62
2022/12/11 08:12:05;;;;;;;66.20;25.10;;;1.50;99.90;;;;;;5112162;28;20043;-62
2022/12/11 08:14:31;;;;;;;61.70;26.60;;;1.60;99.90;;;;;;5104216;28;20115;-62
2022/12/11 08:16:58;;;;;;;54.15;23.70;;;1.50;99.90;;;;;;5096912;28;20123;-62
2022/12/11 08:19:25;;;;;;;68.47;25.45;;;1.50;99.90;;;;;;5112047;28;20043;-63
2022/12/11 08:21:50;;;;;;;54.17;25.83;;;1.50;99.90;;;;;;5112681;28;20495;-62
2022/12/11 08:24:19;;;;;;;67.93;25.45;;;1.50;99.90;;;;;;5112606;28;20043;-62
2022/12/11 08:26:45;;;;;;;57.83;25.42;;;1.60;99.90;;;;;;5110756;28;20488;-62
2022/12/11 08:29:12;;;;;;;62.15;24.52;;;1.60;99.90;;;;;;5111634;28;20044;-61
2022/12/11 08:31:38;;;;;;;58.90;24.52;;;1.50;99.90;;;;;;5112353;28;20553;-61
2022/12/11 08:34:04;;;;;;;55.17;22.48;;;1.50;99.90;;;;;;5093293;28;20123;-62
2022/12/11 08:36:30;;;;;;;56.83;22.52;;;1.50;99.90;;;;;;5111131;28;20443;-62
2022/12/11 08:38:56;;;;;;;69.03;27.05;;;1.50;99.90;;;;;;5112405;28;20042;-61
2022/12/11 08:41:27;;;;;;;59.20;24.45;;;1.50;99.90;;;;;;5111833;28;20092;-62
2022/12/11 08:43:54;;;;;;;61.33;24.75;;;1.50;99.90;;;;;;5094174;28;20043;-61
2022/12/11 08:46:22;;;;;;;53.63;24.90;;;1.50;99.90;;;;;;5110765;28;20114;-62
2022/12/11 08:48:48;;;;;;;65.03;26.23;;;1.50;99.90;;;;;;5112098;28;20043;-61
2022/12/11 08:51:17;;;;;;;63.17;26.30;;;1.50;99.90;;;;;;5111007;28;20123;-61
2022/12/11 08:53:43;;;;;;;57.70;23.98;;;1.60;99.90;;;;;;5110474;28;20534;-61
2022/12/11 08:56:11;;;;;;;63.30;24.25;;;1.60;99.90;;;;;;5112287;28;20481;-62
2022/12/11 08:58:37;;;;;;;62.15;25.83;;;1.60;99.90;;;;;;5110755;28;20118;-61
2022/12/11 09:01:11;;;;;;;61.80;24.92;;;1.60;99.90;;;;;;5092393;28;20126;-61
2022/12/11 09:03:38;;;;;;;65.55;26.75;;;1.60;99.90;;;;;;5112715;28;20036;-61
2022/12/11 09:06:12;;;;;;;63.70;25.90;;;1.60;99.90;;;;;;5116850;28;20391;-61
2022/12/11 09:08:39;;;;;;;64.13;25.98;;;1.60;99.90;;;;;;5117653;28;20036;-61
2022/12/11 09:11:07;;;;;;;72.20;27.58;;;1.70;99.90;;;;;;5100121;28;20080;-61
2022/12/11 09:13:34;;;;;;;54.70;26.38;;;1.60;99.90;;;;;;5117333;28;20044;-60
2022/12/11 09:16:00;;;;;;;62.60;27.17;;;1.70;99.90;;;;;;5118128;28;20032;-60
2022/12/11 09:18:26;;;;;;;60.92;24.73;;;1.70;99.90;;;;;;5116505;28;20032;-60
2022/12/11 09:21:03;;;;;;;61.33;26.27;;;1.70;99.90;;;;;;5117142;28;20067;-61
2022/12/11 09:23:29;;;;;;;57.05;24.70;;;1.70;99.90;;;;;;5116554;28;20131;-61
2022/12/11 09:25:54;;;;;;;64.05;27.90;;;1.70;99.90;;;;;;5108122;27;20115;-61
2022/12/11 09:28:21;;;;;;;63.58;27.23;;;1.70;99.90;;;;;;5097476;28;20091;-61
2022/12/11 09:30:46;;;;;;;65.97;26.73;;;1.80;99.90;;;;;;5112678;28;20063;-61
2022/12/11 09:33:12;;;;;;;57.53;25.75;;;1.70;99.90;;;;;;5115071;28;20491;-61
2022/12/11 09:35:38;;;;;;;67.10;27.67;;;1.80;99.90;;;;;;5113885;28;20047;-61
2022/12/11 09:38:03;;;;;;;64.55;26.05;;;1.80;99.90;;;;;;5113921;28;20083;-63
2022/12/11 09:40:31;;;;;;;54.88;24.02;;;1.80;99.90;;;;;;5114342;28;20039;-62
2022/12/11 09:43:05;;;;;;;54.70;27.17;;;1.80;99.90;;;;;;5115093;27;20408;-62
2022/12/11 09:45:32;;;;;;;68.85;26.02;;;1.80;99.90;;;;;;5115650;28;20043;-63
2022/12/11 09:48:00;;;;;;;54.90;24.70;;;1.90;99.90;;;;;;5113250;27;20039;-63
2022/12/11 09:50:31;;;;;;;56.22;24.02;;;1.80;99.90;;;;;;5113758;28;20058;-63
2022/12/11 09:53:02;;;;;;;60.35;25.17;;;1.90;99.90;;;;;;5115713;27;20502;-63
2022/12/11 09:55:42;;;;;;;44.38;21.30;;;1.90;99.90;;;;;;5114739;28;20047;-63
2022/12/11 09:58:28;;;;;;;56.38;24.73;;;1.90;99.90;;;;;;5114379;28;20560;-63
2022/12/11 10:01:04;;;;;;;61.83;24.60;;;1.90;99.90;;;;;;5110237;28;20113;-63
2022/12/11 10:03:44;;;;;;;65.00;27.10;;;2.00;99.90;;;;;;5114706;28;20039;-62
2022/12/11 10:06:28;;;;;;;51.33;25.75;;;2.00;99.90;;;;;;5116272;28;20067;-62
2022/12/11 10:09:02;;;;;;;53.13;22.83;;;2.00;99.90;;;;;;5115884;28;20046;-63
2022/12/11 10:11:47;;;;;;;55.55;23.25;;;2.00;99.90;;;;;;5114486;28;20039;-62
2022/12/11 10:14:33;;;;;;;65.25;23.70;;;2.00;99.90;;;;;;5116403;27;20040;-62
2022/12/11 10:17:22;;;;;;;51.72;21.75;;;2.00;99.90;;;;;;5111799;28;20180;-62
2022/12/11 10:19:48;;;;;;;54.13;23.63;;;2.00;99.90;;;;;;5110906;28;20837;-62
2022/12/11 10:22:22;;;;;;;48.70;21.45;;;2.00;99.90;;;;;;5111318;28;20089;-62
2022/12/11 10:24:57;;;;;;;51.38;24.00;;;2.00;99.90;;;;;;5109760;28;20036;-62
2022/12/11 10:27:30;;;;;;;43.70;21.90;;;2.10;99.90;;;;;;5111254;28;20108;-62
2022/12/11 10:30:34;;;;;;;51.60;22.83;;;2.10;99.90;;;;;;5111714;28;20043;-64
2022/12/11 10:33:25;;;;;;;50.55;21.88;;;2.10;99.90;;;;;;5058615;28;20154;-63
2022/12/11 10:35:54;;;;;;;45.00;22.45;;;2.10;99.90;;;;;;5096706;28;20043;-63
2022/12/11 10:38:37;;;;;;;46.90;20.80;;;2.20;99.90;;;;;;5112277;28;20039;-63
2022/12/11 10:41:19;;;;;;;39.60;20.02;;;2.20;99.90;;;;;;5113419;28;20078;-63
2022/12/11 10:43:48;;;;;;;47.47;21.55;;;2.20;99.90;;;;;;5113995;28;20063;-63
2022/12/11 10:46:17;;;;;;;41.33;20.05;;;2.20;99.90;;;;;;5114029;28;20039;-63
2022/12/11 10:48:54;;;;;;;41.78;20.77;;;2.20;99.90;;;;;;5113431;28;20079;-63
2022/12/11 10:51:23;;;;;;;42.97;19.90;;;2.20;99.90;;;;;;5102322;28;20118;-64
2022/12/11 10:53:50;;;;;;;47.10;19.60;;;2.30;99.90;;;;;;5109266;28;20061;-63
2022/12/11 10:56:25;;;;;;;48.03;21.45;;;2.30;99.90;;;;;;5112941;28;20040;-62
2022/12/11 10:58:51;;;;;;;43.63;19.00;;;2.30;99.90;;;;;;5093063;28;20101;-62
2022/12/11 11:01:21;;;;;;;47.45;21.25;;;2.30;99.90;;;;;;5093466;28;20284;-62
2022/12/11 11:04:05;;;;;;;43.40;21.13;;;2.30;99.90;;;;;;5092756;28;20050;-62
2022/12/11 11:06:31;;;;;;;45.13;19.92;;;2.30;99.90;;;;;;5094155;28;20457;-62
2022/12/11 11:08:59;;;;;;;37.53;19.98;;;2.30;99.90;;;;;;5092421;28;20048;-62
2022/12/11 11:11:37;;;;;;;39.03;20.00;;;2.40;99.90;;;;;;5094068;28;20068;-63
2022/12/11 11:14:08;;;;;;;47.42;20.00;;;2.30;99.90;;;;;;5074810;28;20052;-62
2022/12/11 11:16:36;;;;;;;38.72;18.42;;;2.40;99.90;;;;;;5093924;28;20365;-62
2022/12/11 11:19:03;;;;;;;45.20;19.95;;;2.40;99.90;;;;;;5092336;28;20040;-62
2022/12/11 11:21:30;;;;;;;41.70;19.77;;;2.40;99.90;;;;;;5092284;28;20048;-62
2022/12/11 11:23:56;;;;;;;40.95;19.30;;;2.40;99.90;;;;;;5092334;28;20044;-62
2022/12/11 11:26:23;;;;;;;38.50;20.33;;;2.40;99.90;;;;;;5092477;28;20036;-62
2022/12/11 11:28:53;;;;;;;38.30;18.83;;;2.40;99.90;;;;;;5092266;28;20044;-62
2022/12/11 11:31:20;;;;;;;40.58;19.95;;;2.40;99.90;;;;;;5092223;28;20050;-62
2022/12/11 11:33:57;;;;;;;41.70;19.05;;;2.40;99.90;;;;;;5092060;28;20047;-62
2022/12/11 11:36:26;;;;;;;40.20;20.60;;;2.50;99.90;;;;;;5091897;28;20048;-63
2022/12/11 11:39:01;;;;;;;38.75;18.77;;;2.40;99.90;;;;;;5093474;28;20415;-62
2022/12/11 11:41:34;;;;;;;36.88;19.48;;;2.40;99.90;;;;;;5092180;28;20122;-62
2022/12/11 11:44:08;;;;;;;39.58;19.95;;;2.40;99.90;;;;;;5092627;28;20093;-62
2022/12/11 11:46:55;;;;;;;41.00;20.70;;;2.40;99.90;;;;;;5092539;28;20082;-62
2022/12/11 11:49:48;;;;;;;39.13;19.25;;;2.40;99.90;;;;;;5091503;28;20048;-62
2022/12/11 11:52:14;;;;;;;38.83;18.77;;;2.40;99.90;;;;;;5093288;28;20400;-62
2022/12/11 11:54:59;;;;;;;44.30;21.25;;;2.40;99.90;;;;;;5091966;28;20052;-63
2022/12/11 11:57:44;;;;;;;40.60;19.88;;;2.40;99.90;;;;;;5092371;28;20048;-62
2022/12/11 12:00:23;;;;;;;40.38;21.27;;;2.40;99.90;;;;;;5091959;28;20393;-62
2022/12/11 12:02:56;;;;;;;45.25;21.70;;;2.40;99.90;;;;;;5092953;28;20093;-62
2022/12/11 12:05:38;;;;;;;39.15;21.33;;;2.40;99.90;;;;;;5091154;28;20075;-63
2022/12/11 12:08:31;;;;;;;38.45;18.70;;;2.40;99.90;;;;;;5091475;28;20412;-62
2022/12/11 12:11:16;;;;;;;32.80;17.58;;;2.50;99.90;;;;;;5090779;28;20512;-63
2022/12/11 12:13:53;;;;;;;40.97;19.85;;;2.40;99.90;;;;;;5092850;28;20052;-63
2022/12/11 12:16:28;;;;;;;41.13;21.38;;;2.40;99.90;;;;;;5092421;28;20122;-62
2022/12/11 12:19:18;;;;;;;41.53;20.15;;;2.50;99.90;;;;;;5092106;28;20439;-63
2022/12/11 12:21:48;;;;;;;37.45;20.15;;;2.50;99.90;;;;;;5074461;28;20127;-62
2022/12/11 12:24:52;;;;;;;45.40;21.30;;;2.50;99.90;;;;;;5092286;28;20477;-62
2022/12/11 12:27:39;;;;;;;39.30;19.17;;;2.50;99.90;;;;;;5036091;28;20056;-62
2022/12/11 12:30:13;;;;;;;36.90;19.45;;;2.50;99.90;;;;;;5090960;28;20036;-60
2022/12/11 12:33:26;;;;;;;47.17;21.17;;;2.50;99.90;;;;;;5092361;28;20047;-62
2022/12/11 12:36:15;;;;;;;36.63;18.02;;;2.50;99.90;;;;;;5048133;28;20048;-62
2022/12/11 12:38:58;;;;;;;41.58;21.58;;;2.50;99.90;;;;;;5109575;28;20067;-63
2022/12/11 12:41:32;;;;;;;40.00;19.17;;;2.60;99.90;;;;;;5111804;28;20114;-63
2022/12/11 12:44:15;;;;;;;39.45;20.50;;;2.60;99.90;;;;;;5100113;28;20504;-63
2022/12/11 12:46:49;;;;;;;40.03;19.95;;;2.50;99.90;;;;;;5099364;28;20032;-63
2022/12/11 12:49:36;;;;;;;38.28;20.30;;;2.50;99.90;;;;;;5104735;28;20457;-63
2022/12/11 12:52:05;;;;;;;33.83;19.52;;;2.50;99.90;;;;;;5087915;28;20143;-63
2022/12/11 12:54:32;;;;;;;38.70;20.27;;;2.40;99.90;;;;;;5104351;28;20050;-63
2022/12/11 12:57:00;;;;;;;36.17;20.17;;;2.40;99.90;;;;;;5108772;28;20051;-63
2022/12/11 12:59:27;;;;;;;35.05;18.17;;;2.50;99.90;;;;;;5109974;28;20500;-63
2022/12/11 13:01:58;;;;;;;41.33;19.95;;;2.50;99.90;;;;;;5109390;28;20044;-63